sensor_id;sensor_type;location;lat;lon;timestamp;pressure;altitude;pressure_sealevel;temperature;humidity
64460;BME280;50828;53.756;21.140;2023-04-07T00:01:18;100029.10;;;5.35;67.16
64460;BME280;50828;53.756;21.140;2023-04-07T00:06:26;100022.74;;;5.39;67.31
64460;BME280;50828;53.756;21.140;2023-04-07T00:11:33;100023.91;;;5.42;67.53
64460;BME280;50828;53.756;21.140;2023-04-07T00:16:40;100012.89;;;5.43;67.49
64460;BME280;50828;53.756;21.140;2023-04-07T00:21:48;100015.23;;;5.47;67.52
64460;BME280;50828;53.756;21.140;2023-04-07T00:26:55;100018.13;;;5.51;67.52
64460;BME280;50828;53.756;21.140;2023-04-07T00:32:36;100014.59;;;5.53;67.75
64460;BME280;50828;53.756;21.140;2023-04-07T00:37:46;100004.08;;;5.55;67.60
64460;BME280;50828;53.756;21.140;2023-04-07T00:42:54;100004.83;;;5.60;67.72
64460;BME280;50828;53.756;21.140;2023-04-07T00:48:01;100003.58;;;5.62;67.87
64460;BME280;50828;53.756;21.140;2023-04-07T00:53:10;99999.02;;;5.63;67.70
64460;BME280;50828;53.756;21.140;2023-04-07T00:58:18;100003.13;;;5.66;67.98
64460;BME280;50828;53.756;21.140;2023-04-07T01:03:31;99997.35;;;5.67;67.96
64460;BME280;50828;53.756;21.140;2023-04-07T01:08:49;99996.91;;;5.71;67.95
64460;BME280;50828;53.756;21.140;2023-04-07T01:13:58;99993.41;;;5.72;68.01
64460;BME280;50828;53.756;21.140;2023-04-07T01:19:22;99991.77;;;5.75;67.86
64460;BME280;50828;53.756;21.140;2023-04-07T01:24:53;99993.04;;;5.80;68.02
64460;BME280;50828;53.756;21.140;2023-04-07T01:30:10;99983.88;;;5.83;68.14
64460;BME280;50828;53.756;21.140;2023-04-07T01:35:19;99976.35;;;5.84;68.13
64460;BME280;50828;53.756;21.140;2023-04-07T01:40:28;99973.09;;;5.88;68.18
64460;BME280;50828;53.756;21.140;2023-04-07T01:45:37;99967.46;;;5.90;68.25
64460;BME280;50828;53.756;21.140;2023-04-07T01:50:46;99967.41;;;5.93;68.09
64460;BME280;50828;53.756;21.140;2023-04-07T01:55:55;99967.55;;;5.94;68.32
64460;BME280;50828;53.756;21.140;2023-04-07T02:01:02;99959.52;;;5.94;68.08
64460;BME280;50828;53.756;21.140;2023-04-07T02:06:14;99961.20;;;5.98;68.31
64460;BME280;50828;53.756;21.140;2023-04-07T02:11:25;99963.66;;;5.97;68.25
64460;BME280;50828;53.756;21.140;2023-04-07T02:16:36;99965.51;;;6.00;68.30
64460;BME280;50828;53.756;21.140;2023-04-07T02:21:46;99961.30;;;6.01;68.44
64460;BME280;50828;53.756;21.140;2023-04-07T02:26:54;99966.32;;;6.03;68.52
64460;BME280;50828;53.756;21.140;2023-04-07T02:32:02;99959.46;;;6.04;68.40
64460;BME280;50828;53.756;21.140;2023-04-07T02:37:09;99954.19;;;6.06;68.61
64460;BME280;50828;53.756;21.140;2023-04-07T02:42:17;99953.09;;;6.08;68.65
64460;BME280;50828;53.756;21.140;2023-04-07T02:47:25;99951.75;;;6.06;68.62
64460;BME280;50828;53.756;21.140;2023-04-07T02:52:33;99962.99;;;6.10;68.51
64460;BME280;50828;53.756;21.140;2023-04-07T02:57:44;99961.63;;;6.10;68.83
64460;BME280;50828;53.756;21.140;2023-04-07T03:03:09;99963.16;;;6.11;68.60
64460;BME280;50828;53.756;21.140;2023-04-07T03:08:20;99962.79;;;6.12;68.66
64460;BME280;50828;53.756;21.140;2023-04-07T03:13:27;99961.38;;;6.12;68.73
64460;BME280;50828;53.756;21.140;2023-04-07T03:18:35;99954.05;;;6.12;68.93
64460;BME280;50828;53.756;21.140;2023-04-07T03:23:43;99962.70;;;6.16;68.99
64460;BME280;50828;53.756;21.140;2023-04-07T03:28:51;99968.09;;;6.17;69.00
64460;BME280;50828;53.756;21.140;2023-04-07T03:33:58;99965.52;;;6.15;68.75
64460;BME280;50828;53.756;21.140;2023-04-07T03:39:06;99972.26;;;6.18;68.99
64460;BME280;50828;53.756;21.140;2023-04-07T03:44:13;99970.35;;;6.17;68.93
64460;BME280;50828;53.756;21.140;2023-04-07T03:49:21;99964.27;;;6.16;69.14
64460;BME280;50828;53.756;21.140;2023-04-07T03:54:28;99977.29;;;6.20;69.13
64460;BME280;50828;53.756;21.140;2023-04-07T03:59:36;99972.52;;;6.21;69.00
64460;BME280;50828;53.756;21.140;2023-04-07T04:04:44;99975.65;;;6.22;69.15
64460;BME280;50828;53.756;21.140;2023-04-07T04:09:52;99976.88;;;6.22;69.07
64460;BME280;50828;53.756;21.140;2023-04-07T04:14:59;99979.13;;;6.23;69.27
64460;BME280;50828;53.756;21.140;2023-04-07T04:20:09;99978.02;;;6.25;69.14
64460;BME280;50828;53.756;21.140;2023-04-07T04:25:22;99982.02;;;6.26;69.31
64460;BME280;50828;53.756;21.140;2023-04-07T04:30:31;99982.52;;;6.28;69.33
64460;BME280;50828;53.756;21.140;2023-04-07T04:35:39;99982.48;;;6.29;69.14
64460;BME280;50828;53.756;21.140;2023-04-07T04:40:49;99984.88;;;6.32;69.35
64460;BME280;50828;53.756;21.140;2023-04-07T04:46:01;99984.64;;;6.34;69.40
64460;BME280;50828;53.756;21.140;2023-04-07T04:51:13;99984.94;;;6.36;69.15
64460;BME280;50828;53.756;21.140;2023-04-07T04:56:21;99986.98;;;6.38;69.33
64460;BME280;50828;53.756;21.140;2023-04-07T05:01:29;99991.08;;;6.43;69.32
64460;BME280;50828;53.756;21.140;2023-04-07T05:06:45;99992.04;;;6.46;69.33
64460;BME280;50828;53.756;21.140;2023-04-07T05:11:53;99996.67;;;6.49;69.24
64460;BME280;50828;53.756;21.140;2023-04-07T05:17:01;99987.59;;;6.49;69.25
64460;BME280;50828;53.756;21.140;2023-04-07T05:22:10;99992.67;;;6.55;69.46
64460;BME280;50828;53.756;21.140;2023-04-07T05:27:23;99985.77;;;6.59;69.50
64460;BME280;50828;53.756;21.140;2023-04-07T05:32:32;99984.14;;;6.61;69.32
64460;BME280;50828;53.756;21.140;2023-04-07T05:37:44;99993.57;;;6.68;69.32
64460;BME280;50828;53.756;21.140;2023-04-07T05:42:51;99998.83;;;6.74;69.31
64460;BME280;50828;53.756;21.140;2023-04-07T05:47:59;99995.21;;;6.79;69.36
64460;BME280;50828;53.756;21.140;2023-04-07T05:53:19;99995.06;;;6.85;69.23
64460;BME280;50828;53.756;21.140;2023-04-07T05:58:27;99993.20;;;6.89;69.50
64460;BME280;50828;53.756;21.140;2023-04-07T06:03:35;99992.41;;;6.92;69.42
64460;BME280;50828;53.756;21.140;2023-04-07T06:08:53;99994.41;;;6.95;69.32
64460;BME280;50828;53.756;21.140;2023-04-07T06:14:01;99996.96;;;6.98;69.39
64460;BME280;50828;53.756;21.140;2023-04-07T06:19:08;99995.84;;;7.01;69.54
64460;BME280;50828;53.756;21.140;2023-04-07T06:24:15;99997.64;;;7.06;69.26
64460;BME280;50828;53.756;21.140;2023-04-07T06:29:23;100005.41;;;7.10;69.43
64460;BME280;50828;53.756;21.140;2023-04-07T06:34:31;100009.34;;;7.13;69.55
64460;BME280;50828;53.756;21.140;2023-04-07T06:39:39;100013.60;;;7.18;69.40
64460;BME280;50828;53.756;21.140;2023-04-07T06:44:46;100014.36;;;7.21;69.43
64460;BME280;50828;53.756;21.140;2023-04-07T06:49:53;100014.41;;;7.26;69.40
64460;BME280;50828;53.756;21.140;2023-04-07T06:55:00;100006.46;;;7.29;69.55
64460;BME280;50828;53.756;21.140;2023-04-07T07:00:09;100003.46;;;7.36;69.72
64460;BME280;50828;53.756;21.140;2023-04-07T07:05:17;100008.77;;;7.46;69.83
64460;BME280;50828;53.756;21.140;2023-04-07T07:10:24;100001.66;;;7.56;69.71
64460;BME280;50828;53.756;21.140;2023-04-07T07:15:32;100001.28;;;7.68;69.92
64460;BME280;50828;53.756;21.140;2023-04-07T07:20:39;99999.27;;;7.88;69.91
64460;BME280;50828;53.756;21.140;2023-04-07T07:25:47;100000.63;;;8.12;69.75
64460;BME280;50828;53.756;21.140;2023-04-07T07:30:54;100005.41;;;8.38;70.01
64460;BME280;50828;53.756;21.140;2023-04-07T07:36:01;100000.89;;;8.59;69.75
64460;BME280;50828;53.756;21.140;2023-04-07T07:41:09;100001.26;;;8.74;69.99
64460;BME280;50828;53.756;21.140;2023-04-07T07:46:16;99996.07;;;8.87;69.86
64460;BME280;50828;53.756;21.140;2023-04-07T07:51:23;99991.89;;;9.06;69.87
64460;BME280;50828;53.756;21.140;2023-04-07T07:56:30;99987.73;;;9.29;69.96
64460;BME280;50828;53.756;21.140;2023-04-07T08:01:37;99991.39;;;9.53;69.91
64460;BME280;50828;53.756;21.140;2023-04-07T08:06:45;100005.25;;;9.81;69.77
64460;BME280;50828;53.756;21.140;2023-04-07T08:11:52;100017.69;;;10.14;69.71
64460;BME280;50828;53.756;21.140;2023-04-07T08:17:00;100017.59;;;10.48;69.29
64460;BME280;50828;53.756;21.140;2023-04-07T08:22:07;100014.08;;;10.77;69.24
64460;BME280;50828;53.756;21.140;2023-04-07T08:27:14;100020.96;;;10.93;68.48
64460;BME280;50828;53.756;21.140;2023-04-07T08:32:22;100023.88;;;11.03;68.14
64460;BME280;50828;53.756;21.140;2023-04-07T08:37:29;100020.30;;;11.13;67.83
64460;BME280;50828;53.756;21.140;2023-04-07T08:42:41;100020.73;;;11.18;68.00
64460;BME280;50828;53.756;21.140;2023-04-07T08:47:52;100015.50;;;11.26;67.87
64460;BME280;50828;53.756;21.140;2023-04-07T08:53:02;100011.90;;;11.31;67.54
64460;BME280;50828;53.756;21.140;2023-04-07T08:58:15;100005.59;;;11.38;67.20
64460;BME280;50828;53.756;21.140;2023-04-07T09:03:23;100005.15;;;11.44;67.23
64460;BME280;50828;53.756;21.140;2023-04-07T09:08:32;100002.93;;;11.54;67.38
64460;BME280;50828;53.756;21.140;2023-04-07T09:13:39;100005.87;;;11.63;66.75
64460;BME280;50828;53.756;21.140;2023-04-07T09:18:47;100002.33;;;11.63;66.35
64460;BME280;50828;53.756;21.140;2023-04-07T09:23:54;100007.89;;;11.77;66.45
64460;BME280;50828;53.756;21.140;2023-04-07T09:29:02;99993.54;;;11.86;66.24
64460;BME280;50828;53.756;21.140;2023-04-07T09:34:24;99984.79;;;11.96;66.72
64460;BME280;50828;53.756;21.140;2023-04-07T09:39:32;99987.48;;;12.10;66.51
64460;BME280;50828;53.756;21.140;2023-04-07T09:44:41;99988.81;;;12.22;66.05
64460;BME280;50828;53.756;21.140;2023-04-07T09:49:54;99994.23;;;12.38;66.12
64460;BME280;50828;53.756;21.140;2023-04-07T09:55:01;99993.92;;;12.55;65.97
64460;BME280;50828;53.756;21.140;2023-04-07T10:00:13;99986.31;;;12.72;65.89
64460;BME280;50828;53.756;21.140;2023-04-07T10:05:21;99987.23;;;12.89;65.67
64460;BME280;50828;53.756;21.140;2023-04-07T10:10:29;99983.77;;;13.05;65.58
64460;BME280;50828;53.756;21.140;2023-04-07T10:15:38;99983.39;;;13.22;65.65
64460;BME280;50828;53.756;21.140;2023-04-07T10:20:46;99983.13;;;13.41;65.68
64460;BME280;50828;53.756;21.140;2023-04-07T10:25:57;99988.20;;;13.58;65.13
64460;BME280;50828;53.756;21.140;2023-04-07T10:31:06;99981.73;;;13.76;65.33
64460;BME280;50828;53.756;21.140;2023-04-07T10:36:16;99976.31;;;13.94;64.96
64460;BME280;50828;53.756;21.140;2023-04-07T10:41:34;99972.95;;;14.09;64.76
64460;BME280;50828;53.756;21.140;2023-04-07T10:47:05;99967.12;;;14.25;64.35
64460;BME280;50828;53.756;21.140;2023-04-07T10:52:25;99968.84;;;14.38;63.87
64460;BME280;50828;53.756;21.140;2023-04-07T10:57:32;99964.14;;;14.52;63.61
64460;BME280;50828;53.756;21.140;2023-04-07T11:02:40;99960.33;;;14.66;63.67
64460;BME280;50828;53.756;21.140;2023-04-07T11:07:51;99954.76;;;14.73;62.90
64460;BME280;50828;53.756;21.140;2023-04-07T11:13:04;99965.96;;;14.87;62.79
64460;BME280;50828;53.756;21.140;2023-04-07T11:18:14;99970.00;;;14.97;62.20
64460;BME280;50828;53.756;21.140;2023-04-07T11:23:23;99975.13;;;15.06;61.88
64460;BME280;50828;53.756;21.140;2023-04-07T11:28:32;99973.45;;;15.13;61.36
64460;BME280;50828;53.756;21.140;2023-04-07T11:33:40;99977.06;;;15.18;60.97
64460;BME280;50828;53.756;21.140;2023-04-07T11:38:48;99971.73;;;15.24;61.04
64460;BME280;50828;53.756;21.140;2023-04-07T11:44:09;99965.92;;;15.32;60.65
64460;BME280;50828;53.756;21.140;2023-04-07T11:49:17;99964.58;;;15.42;60.51
64460;BME280;50828;53.756;21.140;2023-04-07T11:54:24;99960.38;;;15.52;60.33
64460;BME280;50828;53.756;21.140;2023-04-07T11:59:32;99949.47;;;15.65;60.22
64460;BME280;50828;53.756;21.140;2023-04-07T12:04:39;99955.48;;;15.79;59.87
64460;BME280;50828;53.756;21.140;2023-04-07T12:10:18;99950.29;;;15.91;59.50
64460;BME280;50828;53.756;21.140;2023-04-07T12:15:26;99953.35;;;16.02;58.93
64460;BME280;50828;53.756;21.140;2023-04-07T12:20:33;99948.80;;;16.08;58.88
64460;BME280;50828;53.756;21.140;2023-04-07T12:25:43;99946.92;;;16.18;58.82
64460;BME280;50828;53.756;21.140;2023-04-07T12:30:51;99952.25;;;16.27;58.56
64460;BME280;50828;53.756;21.140;2023-04-07T12:35:58;99951.20;;;16.34;58.02
64460;BME280;50828;53.756;21.140;2023-04-07T12:41:06;99954.92;;;16.40;58.08
64460;BME280;50828;53.756;21.140;2023-04-07T12:46:13;99956.41;;;16.47;57.75
64460;BME280;50828;53.756;21.140;2023-04-07T12:51:20;99959.02;;;16.53;57.46
64460;BME280;50828;53.756;21.140;2023-04-07T12:56:27;99952.38;;;16.56;57.29
64460;BME280;50828;53.756;21.140;2023-04-07T13:01:35;99953.24;;;16.62;57.36
64460;BME280;50828;53.756;21.140;2023-04-07T13:06:43;99952.06;;;16.66;57.36
64460;BME280;50828;53.756;21.140;2023-04-07T13:11:50;99956.92;;;16.71;56.66
64460;BME280;50828;53.756;21.140;2023-04-07T13:16:57;99956.80;;;16.73;56.30
64460;BME280;50828;53.756;21.140;2023-04-07T13:22:04;99962.08;;;16.76;56.05
64460;BME280;50828;53.756;21.140;2023-04-07T13:27:12;99963.25;;;16.79;55.46
64460;BME280;50828;53.756;21.140;2023-04-07T13:32:19;99963.98;;;16.82;54.71
64460;BME280;50828;53.756;21.140;2023-04-07T13:37:26;99968.86;;;16.83;54.12
64460;BME280;50828;53.756;21.140;2023-04-07T13:42:34;99965.69;;;16.83;53.85
64460;BME280;50828;53.756;21.140;2023-04-07T13:47:41;99970.14;;;16.83;53.43
64460;BME280;50828;53.756;21.140;2023-04-07T13:52:48;99972.77;;;16.81;53.19
64460;BME280;50828;53.756;21.140;2023-04-07T13:57:56;99967.20;;;16.77;53.22
64460;BME280;50828;53.756;21.140;2023-04-07T14:03:03;99971.58;;;16.78;53.19
64460;BME280;50828;53.756;21.140;2023-04-07T14:08:11;99969.83;;;16.77;53.17
64460;BME280;50828;53.756;21.140;2023-04-07T14:13:18;99966.92;;;16.78;53.13
64460;BME280;50828;53.756;21.140;2023-04-07T14:18:26;99967.06;;;16.79;53.00
64460;BME280;50828;53.756;21.140;2023-04-07T14:23:33;99970.89;;;16.80;52.65
64460;BME280;50828;53.756;21.140;2023-04-07T14:28:42;99970.85;;;16.80;52.79
64460;BME280;50828;53.756;21.140;2023-04-07T14:33:50;99974.31;;;16.85;52.34
64460;BME280;50828;53.756;21.140;2023-04-07T14:38:57;99971.14;;;16.84;52.26
64460;BME280;50828;53.756;21.140;2023-04-07T14:44:06;99971.66;;;16.81;52.09
64460;BME280;50828;53.756;21.140;2023-04-07T14:49:14;99973.60;;;16.79;52.02
64460;BME280;50828;53.756;21.140;2023-04-07T14:54:21;99982.27;;;16.75;52.17
64460;BME280;50828;53.756;21.140;2023-04-07T14:59:29;99988.79;;;16.67;52.21
64460;BME280;50828;53.756;21.140;2023-04-07T15:04:36;99991.83;;;16.59;52.36
64460;BME280;50828;53.756;21.140;2023-04-07T15:09:44;99996.13;;;16.51;52.62
64460;BME280;50828;53.756;21.140;2023-04-07T15:14:52;100001.02;;;16.44;52.50
64460;BME280;50828;53.756;21.140;2023-04-07T15:20:00;100006.58;;;16.38;52.40
64460;BME280;50828;53.756;21.140;2023-04-07T15:25:08;100013.57;;;16.32;52.49
64460;BME280;50828;53.756;21.140;2023-04-07T15:30:15;100013.45;;;16.25;52.61
64460;BME280;50828;53.756;21.140;2023-04-07T15:35:23;100017.61;;;16.19;52.63
64460;BME280;50828;53.756;21.140;2023-04-07T15:40:30;100018.06;;;16.11;52.64
64460;BME280;50828;53.756;21.140;2023-04-07T15:45:41;100020.61;;;16.08;52.75
64460;BME280;50828;53.756;21.140;2023-04-07T15:50:48;100023.49;;;16.02;52.89
64460;BME280;50828;53.756;21.140;2023-04-07T15:55:56;100026.94;;;15.95;53.22
64460;BME280;50828;53.756;21.140;2023-04-07T16:01:04;100031.09;;;15.88;53.22
64460;BME280;50828;53.756;21.140;2023-04-07T16:06:13;100033.52;;;15.84;53.53
64460;BME280;50828;53.756;21.140;2023-04-07T16:11:20;100036.56;;;15.77;53.75
64460;BME280;50828;53.756;21.140;2023-04-07T16:16:28;100043.69;;;15.71;54.26
64460;BME280;50828;53.756;21.140;2023-04-07T16:21:37;100048.30;;;15.63;54.54
64460;BME280;50828;53.756;21.140;2023-04-07T16:26:45;100054.35;;;15.54;55.01
64460;BME280;50828;53.756;21.140;2023-04-07T16:31:55;100054.83;;;15.43;55.36
64460;BME280;50828;53.756;21.140;2023-04-07T16:37:03;100055.16;;;15.35;55.81
64460;BME280;50828;53.756;21.140;2023-04-07T16:42:11;100063.34;;;15.25;56.16
64460;BME280;50828;53.756;21.140;2023-04-07T16:47:19;100071.27;;;15.15;56.46
64460;BME280;50828;53.756;21.140;2023-04-07T16:52:28;100078.46;;;15.04;57.10
64460;BME280;50828;53.756;21.140;2023-04-07T16:57:38;100087.30;;;14.92;57.75
64460;BME280;50828;53.756;21.140;2023-04-07T17:02:46;100107.45;;;14.81;58.21
64460;BME280;50828;53.756;21.140;2023-04-07T17:07:54;100125.86;;;14.69;58.38
64460;BME280;50828;53.756;21.140;2023-04-07T17:13:01;100134.13;;;14.54;58.72
64460;BME280;50828;53.756;21.140;2023-04-07T17:18:09;100132.42;;;14.43;58.88
64460;BME280;50828;53.756;21.140;2023-04-07T17:23:16;100150.59;;;14.32;59.14
64460;BME280;50828;53.756;21.140;2023-04-07T17:28:24;100156.69;;;14.18;59.41
64460;BME280;50828;53.756;21.140;2023-04-07T17:33:32;100160.44;;;14.04;59.66
64460;BME280;50828;53.756;21.140;2023-04-07T17:38:40;100165.38;;;13.94;59.92
64460;BME280;50828;53.756;21.140;2023-04-07T17:43:47;100167.00;;;13.80;60.15
64460;BME280;50828;53.756;21.140;2023-04-07T17:48:55;100175.61;;;13.74;60.35
64460;BME280;50828;53.756;21.140;2023-04-07T17:54:04;100181.52;;;13.66;60.44
64460;BME280;50828;53.756;21.140;2023-04-07T17:59:11;100180.16;;;13.58;60.71
64460;BME280;50828;53.756;21.140;2023-04-07T18:04:19;100184.63;;;13.50;61.01
64460;BME280;50828;53.756;21.140;2023-04-07T18:09:27;100194.13;;;13.45;61.11
64460;BME280;50828;53.756;21.140;2023-04-07T18:14:34;100204.67;;;13.39;61.51
64460;BME280;50828;53.756;21.140;2023-04-07T18:19:42;100212.73;;;13.33;61.59
64460;BME280;50828;53.756;21.140;2023-04-07T18:24:49;100219.25;;;13.26;61.78
64460;BME280;50828;53.756;21.140;2023-04-07T18:29:57;100223.91;;;13.21;61.94
64460;BME280;50828;53.756;21.140;2023-04-07T18:35:05;100227.34;;;13.16;62.01
64460;BME280;50828;53.756;21.140;2023-04-07T18:40:13;100233.08;;;13.11;62.25
64460;BME280;50828;53.756;21.140;2023-04-07T18:45:20;100248.79;;;13.04;62.32
64460;BME280;50828;53.756;21.140;2023-04-07T18:50:28;100257.21;;;12.98;62.36
64460;BME280;50828;53.756;21.140;2023-04-07T18:55:35;100264.58;;;12.92;62.23
64460;BME280;50828;53.756;21.140;2023-04-07T19:00:43;100273.55;;;12.85;62.30
64460;BME280;50828;53.756;21.140;2023-04-07T19:05:51;100277.05;;;12.79;62.36
64460;BME280;50828;53.756;21.140;2023-04-07T19:10:59;100276.69;;;12.71;62.46
64460;BME280;50828;53.756;21.140;2023-04-07T19:16:07;100284.71;;;12.66;62.70
64460;BME280;50828;53.756;21.140;2023-04-07T19:21:15;100293.51;;;12.59;62.80
64460;BME280;50828;53.756;21.140;2023-04-07T19:26:22;100297.34;;;12.48;62.74
64460;BME280;50828;53.756;21.140;2023-04-07T19:31:30;100303.09;;;12.42;62.90
64460;BME280;50828;53.756;21.140;2023-04-07T19:36:38;100315.88;;;12.37;62.99
64460;BME280;50828;53.756;21.140;2023-04-07T19:41:46;100323.61;;;12.29;63.15
64460;BME280;50828;53.756;21.140;2023-04-07T19:46:53;100331.02;;;12.21;63.41
64460;BME280;50828;53.756;21.140;2023-04-07T19:52:01;100334.90;;;12.13;63.47
64460;BME280;50828;53.756;21.140;2023-04-07T19:57:09;100345.42;;;12.07;63.34
64460;BME280;50828;53.756;21.140;2023-04-07T20:02:16;100347.18;;;11.98;63.33
64460;BME280;50828;53.756;21.140;2023-04-07T20:07:23;100356.91;;;11.89;63.48
64460;BME280;50828;53.756;21.140;2023-04-07T20:12:31;100365.38;;;11.80;63.06
64460;BME280;50828;53.756;21.140;2023-04-07T20:17:38;100368.81;;;11.69;62.86
64460;BME280;50828;53.756;21.140;2023-04-07T20:22:46;100372.77;;;11.59;62.34
64460;BME280;50828;53.756;21.140;2023-04-07T20:27:54;100374.11;;;11.47;62.04
64460;BME280;50828;53.756;21.140;2023-04-07T20:33:02;100387.48;;;11.35;62.01
64460;BME280;50828;53.756;21.140;2023-04-07T20:38:09;100391.21;;;11.20;61.76
64460;BME280;50828;53.756;21.140;2023-04-07T20:43:17;100399.27;;;11.07;61.77
64460;BME280;50828;53.756;21.140;2023-04-07T20:48:28;100407.73;;;10.93;61.60
64460;BME280;50828;53.756;21.140;2023-04-07T20:53:36;100412.30;;;10.79;61.77
64460;BME280;50828;53.756;21.140;2023-04-07T20:58:43;100421.48;;;10.69;62.08
64460;BME280;50828;53.756;21.140;2023-04-07T21:03:52;100421.83;;;10.59;62.07
64460;BME280;50828;53.756;21.140;2023-04-07T21:09:00;100429.45;;;10.53;62.20
64460;BME280;50828;53.756;21.140;2023-04-07T21:14:07;100430.70;;;10.47;62.36
64460;BME280;50828;53.756;21.140;2023-04-07T21:19:15;100434.55;;;10.42;62.13
64460;BME280;50828;53.756;21.140;2023-04-07T21:24:23;100444.34;;;10.39;62.40
64460;BME280;50828;53.756;21.140;2023-04-07T21:29:32;100446.11;;;10.34;62.51
64460;BME280;50828;53.756;21.140;2023-04-07T21:34:40;100446.92;;;10.30;62.31
64460;BME280;50828;53.756;21.140;2023-04-07T21:39:47;100444.65;;;10.24;62.42
64460;BME280;50828;53.756;21.140;2023-04-07T21:44:54;100450.06;;;10.20;62.40
64460;BME280;50828;53.756;21.140;2023-04-07T21:50:02;100453.11;;;10.18;62.45
64460;BME280;50828;53.756;21.140;2023-04-07T21:55:12;100455.38;;;10.14;62.38
64460;BME280;50828;53.756;21.140;2023-04-07T22:00:19;100458.71;;;10.08;62.40
64460;BME280;50828;53.756;21.140;2023-04-07T22:05:28;100457.34;;;10.02;62.14
64460;BME280;50828;53.756;21.140;2023-04-07T22:10:36;100456.67;;;9.95;62.06
64460;BME280;50828;53.756;21.140;2023-04-07T22:15:44;100456.89;;;9.88;62.06
64460;BME280;50828;53.756;21.140;2023-04-07T22:20:51;100461.86;;;9.81;61.57
64460;BME280;50828;53.756;21.140;2023-04-07T22:25:59;100463.95;;;9.70;61.37
64460;BME280;50828;53.756;21.140;2023-04-07T22:31:07;100469.03;;;9.59;61.47
64460;BME280;50828;53.756;21.140;2023-04-07T22:36:14;100469.32;;;9.45;61.48
64460;BME280;50828;53.756;21.140;2023-04-07T22:41:21;100477.23;;;9.32;61.74
64460;BME280;50828;53.756;21.140;2023-04-07T22:46:29;100476.93;;;9.18;61.61
64460;BME280;50828;53.756;21.140;2023-04-07T22:51:37;100478.52;;;9.05;61.91
64460;BME280;50828;53.756;21.140;2023-04-07T22:56:45;100480.56;;;8.95;61.87
64460;BME280;50828;53.756;21.140;2023-04-07T23:01:52;100488.17;;;8.87;62.06
64460;BME280;50828;53.756;21.140;2023-04-07T23:07:02;100491.02;;;8.78;61.64
64460;BME280;50828;53.756;21.140;2023-04-07T23:12:10;100488.45;;;8.70;61.85
64460;BME280;50828;53.756;21.140;2023-04-07T23:17:19;100494.13;;;8.61;61.85
64460;BME280;50828;53.756;21.140;2023-04-07T23:22:26;100497.29;;;8.54;62.09
64460;BME280;50828;53.756;21.140;2023-04-07T23:27:34;100497.63;;;8.47;62.25
64460;BME280;50828;53.756;21.140;2023-04-07T23:32:41;100501.65;;;8.40;62.21
64460;BME280;50828;53.756;21.140;2023-04-07T23:37:49;100501.46;;;8.34;62.12
64460;BME280;50828;53.756;21.140;2023-04-07T23:42:56;100498.61;;;8.28;62.39
64460;BME280;50828;53.756;21.140;2023-04-07T23:48:04;100495.26;;;8.21;62.22
64460;BME280;50828;53.756;21.140;2023-04-07T23:53:11;100495.37;;;8.16;62.23
64460;BME280;50828;53.756;21.140;2023-04-07T23:58:19;100498.30;;;8.11;62.10
